Time;durP1;ratioP1;P1;durP2;ratioP2;P2;SDS_P1;SDS_P2;PMS_P1;PMS_P2;Temp;Humidity;BMP_temperature;BMP_pressure;BME280_temperature;BME280_humidity;BME280_pressure;Samples;Min_cycle;Max_cycle;Signal;HPM_P1;HPM_P2
2024/01/13 00:01:57;;;;;;;48.20;14.65;;;;;;;;;;5083684;28;20024;-60
2024/01/13 00:04:23;;;;;;;43.38;14.57;;;;;;;;;;5083953;28;20024;-61
2024/01/13 00:06:50;;;;;;;33.35;13.32;;;;;;;;;;5083713;28;20075;-60
2024/01/13 00:09:16;;;;;;;40.67;13.32;;;;;;;;;;5083540;28;20291;-60
2024/01/13 00:11:43;;;;;;;43.75;13.40;;;;;;;;;;5083457;28;20082;-58
2024/01/13 00:14:09;;;;;;;26.17;12.55;;;;;;;;;;5083687;28;20070;-60
2024/01/13 00:16:36;;;;;;;71.93;16.25;;;;;;;;;;5083584;28;20028;-61
2024/01/13 00:19:03;;;;;;;70.03;14.68;;;;;;;;;;5083493;28;20020;-60
2024/01/13 00:21:29;;;;;;;40.38;13.35;;;;;;;;;;5083956;28;20076;-58
2024/01/13 00:23:56;;;;;;;37.55;14.00;;;;;;;;;;5083487;28;20027;-61
2024/01/13 00:26:23;;;;;;;29.33;13.20;;;;;;;;;;5083692;28;20043;-60
2024/01/13 00:28:50;;;;;;;29.83;12.63;;;;;;;;;;5083448;28;20017;-64
2024/01/13 00:31:16;;;;;;;30.77;13.60;;;;;;;;;;5083820;28;20105;-66
2024/01/13 00:33:46;;;;;;;31.73;13.20;;;;;;;;;;5083310;28;20040;-67
2024/01/13 00:36:12;;;;;;;33.88;13.63;;;;;;;;;;5083987;28;20028;-63
2024/01/13 00:38:39;;;;;;;34.22;12.95;;;;;;;;;;5083426;28;20031;-63
2024/01/13 00:41:06;;;;;;;31.33;13.60;;;;;;;;;;5083628;28;20020;-58
2024/01/13 00:43:41;;;;;;;36.03;13.95;;;;;;;;;;5084148;28;20028;-60
2024/01/13 00:46:08;;;;;;;30.60;13.07;;;;;;;;;;5083813;28;20024;-61
2024/01/13 00:48:36;;;;;;;32.90;13.40;;;;;;;;;;5083630;28;20069;-59
2024/01/13 00:51:03;;;;;;;36.85;13.38;;;;;;;;;;5084160;28;20013;-63
2024/01/13 00:53:30;;;;;;;36.97;13.88;;;;;;;;;;5083455;28;20025;-61
2024/01/13 00:55:57;;;;;;;33.28;12.40;;;;;;;;;;5082180;28;20020;-66
2024/01/13 00:58:24;;;;;;;22.75;12.82;;;;;;;;;;5086556;28;20079;-59
2024/01/13 01:00:50;;;;;;;25.80;12.45;;;;;;;;;;5086885;28;20250;-60
2024/01/13 01:03:17;;;;;;;25.00;12.50;;;;;;;;;;5086577;28;20017;-60
2024/01/13 01:05:43;;;;;;;25.30;12.23;;;;;;;;;;5086684;28;20126;-59
2024/01/13 01:08:10;;;;;;;19.83;12.27;;;;;;;;;;5086600;28;20023;-58
2024/01/13 01:10:36;;;;;;;23.50;12.32;;;;;;;;;;5087001;28;20074;-60
2024/01/13 01:13:03;;;;;;;22.58;11.38;;;;;;;;;;5086758;28;20020;-61
2024/01/13 01:15:30;;;;;;;22.45;11.50;;;;;;;;;;5086765;28;20032;-59
2024/01/13 01:17:56;;;;;;;23.58;12.13;;;;;;;;;;5086294;28;20027;-61
2024/01/13 01:20:24;;;;;;;27.23;11.80;;;;;;;;;;5086230;28;20324;-60
2024/01/13 01:22:50;;;;;;;24.60;11.20;;;;;;;;;;5086023;28;20032;-64
2024/01/13 01:25:17;;;;;;;20.90;11.18;;;;;;;;;;5086161;28;20028;-57
2024/01/13 01:27:44;;;;;;;23.75;11.18;;;;;;;;;;5086401;28;20013;-71
2024/01/13 01:30:12;;;;;;;25.45;11.95;;;;;;;;;;5086414;28;20028;-57
2024/01/13 01:32:38;;;;;;;26.40;11.43;;;;;;;;;;5086003;28;20302;-59
2024/01/13 01:35:06;;;;;;;20.50;11.82;;;;;;;;;;5086415;28;20032;-59
2024/01/13 01:37:33;;;;;;;26.75;11.63;;;;;;;;;;5086373;28;20025;-62
2024/01/13 01:40:00;;;;;;;23.02;10.93;;;;;;;;;;5086213;28;20047;-60
2024/01/13 01:42:27;;;;;;;24.02;11.02;;;;;;;;;;5086024;28;20017;-65
2024/01/13 01:44:54;;;;;;;37.95;12.52;;;;;;;;;;5086135;28;20051;-64
2024/01/13 01:47:21;;;;;;;33.72;11.90;;;;;;;;;;5085967;28;20089;-63
2024/01/13 01:49:48;;;;;;;31.10;11.38;;;;;;;;;;5086182;28;20036;-64
2024/01/13 01:52:17;;;;;;;27.00;12.00;;;;;;;;;;5086069;28;20016;-59
2024/01/13 01:54:47;;;;;;;28.40;11.02;;;;;;;;;;5086473;28;20032;-63
2024/01/13 01:57:15;;;;;;;33.33;11.75;;;;;;;;;;5086630;28;20054;-60
2024/01/13 01:59:42;;;;;;;34.42;11.55;;;;;;;;;;5086028;28;20048;-58
2024/01/13 02:02:09;;;;;;;30.52;10.98;;;;;;;;;;5085525;28;20058;-59
2024/01/13 02:04:39;;;;;;;21.15;10.40;;;;;;;;;;5086325;28;20081;-59
2024/01/13 02:07:06;;;;;;;22.90;10.70;;;;;;;;;;5086118;28;20013;-60
2024/01/13 02:09:33;;;;;;;27.27;10.85;;;;;;;;;;5085813;28;20077;-59
2024/01/13 02:12:00;;;;;;;24.20;11.07;;;;;;;;;;5086144;28;20047;-60
2024/01/13 02:14:26;;;;;;;31.67;11.10;;;;;;;;;;5085906;28;20028;-58
2024/01/13 02:16:54;;;;;;;19.48;10.27;;;;;;;;;;5085751;28;20305;-58
2024/01/13 02:19:20;;;;;;;42.08;11.77;;;;;;;;;;5085340;28;20335;-57
2024/01/13 02:21:50;;;;;;;30.45;11.35;;;;;;;;;;5085837;28;20013;-59
2024/01/13 02:24:23;;;;;;;28.92;11.25;;;;;;;;;;5086078;28;20079;-58
2024/01/13 02:26:49;;;;;;;25.33;10.75;;;;;;;;;;5086116;28;20300;-61
2024/01/13 02:29:16;;;;;;;28.73;10.65;;;;;;;;;;5086043;28;20075;-59
2024/01/13 02:31:42;;;;;;;20.90;10.13;;;;;;;;;;5085792;28;20024;-62
2024/01/13 02:34:15;;;;;;;20.77;10.35;;;;;;;;;;5086411;28;20066;-63
2024/01/13 02:36:45;;;;;;;22.35;12.68;;;;;;;;;;5085531;28;20112;-66
2024/01/13 02:39:12;;;;;;;34.20;23.30;;;;;;;;;;5085770;28;20028;-64
2024/01/13 02:41:38;;;;;;;41.38;25.52;;;;;;;;;;5085740;28;20032;-63
2024/01/13 02:44:05;;;;;;;29.02;19.13;;;;;;;;;;5085149;28;20017;-64
2024/01/13 02:46:32;;;;;;;21.05;15.63;;;;;;;;;;5085244;28;20024;-58
2024/01/13 02:48:59;;;;;;;21.10;13.73;;;;;;;;;;5085131;28;20016;-55
2024/01/13 02:51:27;;;;;;;58.65;15.75;;;;;;;;;;5084691;28;20257;-56
2024/01/13 02:53:54;;;;;;;33.60;13.43;;;;;;;;;;5084807;28;20208;-53
2024/01/13 02:56:21;;;;;;;29.70;13.05;;;;;;;;;;5084719;28;20326;-57
2024/01/13 02:58:48;;;;;;;24.50;14.05;;;;;;;;;;5088176;28;20043;-61
2024/01/13 03:01:15;;;;;;;85.68;60.50;;;;;;;;;;5097282;28;20380;-59
2024/01/13 03:03:42;;;;;;;253.15;215.52;;;;;;;;;;5098841;28;20212;-55
2024/01/13 03:06:10;;;;;;;237.73;197.35;;;;;;;;;;5101592;28;20016;-49
2024/01/13 03:08:37;;;;;;;219.90;169.73;;;;;;;;;;5104313;28;20032;-49
2024/01/13 03:11:03;;;;;;;161.25;125.78;;;;;;;;;;5104988;28;20229;-49
2024/01/13 03:13:30;;;;;;;208.25;159.25;;;;;;;;;;5091489;28;20028;-47
2024/01/13 03:15:56;;;;;;;184.35;136.13;;;;;;;;;;5089294;28;20025;-50
2024/01/13 03:18:23;;;;;;;140.02;105.18;;;;;;;;;;5092915;28;20312;-51
2024/01/13 03:20:50;;;;;;;103.85;76.50;;;;;;;;;;5098299;28;20027;-54
2024/01/13 03:23:16;;;;;;;83.95;58.40;;;;;;;;;;5095031;28;20127;-52
2024/01/13 03:25:43;;;;;;;71.40;50.90;;;;;;;;;;5095428;28;20367;-62
2024/01/13 03:28:10;;;;;;;72.95;46.50;;;;;;;;;;5084959;28;20024;-53
2024/01/13 03:30:36;;;;;;;61.67;38.08;;;;;;;;;;5084244;28;20220;-54
2024/01/13 03:33:03;;;;;;;52.88;30.77;;;;;;;;;;5084861;28;20084;-55
2024/01/13 03:35:29;;;;;;;36.13;26.23;;;;;;;;;;5084266;28;20021;-55
2024/01/13 03:37:56;;;;;;;33.45;22.02;;;;;;;;;;5084572;28;20036;-53
2024/01/13 03:40:23;;;;;;;26.75;18.50;;;;;;;;;;5084378;28;20020;-54
2024/01/13 03:42:49;;;;;;;25.48;17.65;;;;;;;;;;5084586;28;20021;-51
2024/01/13 03:45:16;;;;;;;24.08;16.05;;;;;;;;;;5084358;28;20020;-59
2024/01/13 03:47:42;;;;;;;20.88;15.05;;;;;;;;;;5098367;28;20032;-53
2024/01/13 03:50:09;;;;;;;23.83;13.98;;;;;;;;;;5104306;28;20027;-52
2024/01/13 03:52:36;;;;;;;22.90;13.43;;;;;;;;;;5103308;28;20024;-50
2024/01/13 03:55:03;;;;;;;22.30;12.25;;;;;;;;;;5104371;28;20125;-52
2024/01/13 03:57:29;;;;;;;24.98;13.10;;;;;;;;;;5104525;28;20028;-53
2024/01/13 03:59:56;;;;;;;22.17;13.10;;;;;;;;;;5103897;28;20081;-54
2024/01/13 04:02:23;;;;;;;26.88;13.45;;;;;;;;;;5104857;28;20024;-54
2024/01/13 04:04:50;;;;;;;21.42;11.95;;;;;;;;;;5104168;28;20110;-53
2024/01/13 04:07:16;;;;;;;26.50;12.18;;;;;;;;;;5104376;28;20070;-55
2024/01/13 04:09:43;;;;;;;18.25;11.60;;;;;;;;;;5104293;28;20016;-53
2024/01/13 04:12:10;;;;;;;18.13;11.45;;;;;;;;;;5104299;28;20023;-62
2024/01/13 04:14:36;;;;;;;18.55;11.70;;;;;;;;;;5103901;28;20320;-56
2024/01/13 04:17:03;;;;;;;22.35;11.30;;;;;;;;;;5097467;28;20077;-62
2024/01/13 04:19:29;;;;;;;20.33;11.02;;;;;;;;;;5083580;28;20066;-54
2024/01/13 04:21:56;;;;;;;17.85;10.52;;;;;;;;;;5083831;28;20024;-61
2024/01/13 04:24:23;;;;;;;18.73;10.25;;;;;;;;;;5099274;28;20102;-62
2024/01/13 04:26:49;;;;;;;16.05;10.48;;;;;;;;;;5090851;28;20031;-54
2024/01/13 04:29:16;;;;;;;19.85;10.52;;;;;;;;;;5097869;28;20254;-48
2024/01/13 04:31:42;;;;;;;28.02;11.15;;;;;;;;;;5104652;28;20024;-52
2024/01/13 04:34:09;;;;;;;20.63;10.02;;;;;;;;;;5108006;28;20261;-49
2024/01/13 04:36:36;;;;;;;15.95;10.50;;;;;;;;;;5107450;28;20087;-53
2024/01/13 04:39:03;;;;;;;21.27;10.20;;;;;;;;;;5106946;28;20342;-52
2024/01/13 04:41:30;;;;;;;20.90;10.50;;;;;;;;;;5107740;28;20081;-54
2024/01/13 04:43:58;;;;;;;17.35;10.05;;;;;;;;;;5107644;28;20016;-50
2024/01/13 04:46:25;;;;;;;16.23;10.13;;;;;;;;;;5107416;28;20058;-49
2024/01/13 04:48:52;;;;;;;17.08;10.10;;;;;;;;;;5107869;28;20016;-51
2024/01/13 04:51:18;;;;;;;18.85;9.95;;;;;;;;;;5107364;28;20015;-51
2024/01/13 04:53:45;;;;;;;13.32;9.77;;;;;;;;;;5107374;28;20016;-55
2024/01/13 04:56:11;;;;;;;13.38;9.95;;;;;;;;;;5107420;28;20016;-56
2024/01/13 04:58:38;;;;;;;12.93;9.63;;;;;;;;;;5106369;28;20027;-59
2024/01/13 05:01:05;;;;;;;12.90;9.90;;;;;;;;;;5106838;28;20032;-54
2024/01/13 05:03:31;;;;;;;14.75;9.63;;;;;;;;;;5107598;28;20105;-53
2024/01/13 05:05:58;;;;;;;19.40;10.10;;;;;;;;;;5107296;28;20019;-54
2024/01/13 05:08:24;;;;;;;11.60;9.35;;;;;;;;;;5107375;28;20283;-52
2024/01/13 05:10:51;;;;;;;16.58;9.52;;;;;;;;;;5099615;28;20025;-51
2024/01/13 05:13:17;;;;;;;15.05;10.05;;;;;;;;;;5107586;28;20031;-49
2024/01/13 05:15:44;;;;;;;15.82;10.90;;;;;;;;;;5106440;28;20312;-55
2024/01/13 05:18:11;;;;;;;15.60;10.07;;;;;;;;;;5107493;28;20038;-56
2024/01/13 05:20:37;;;;;;;14.23;10.68;;;;;;;;;;5099647;28;20020;-53
2024/01/13 05:23:04;;;;;;;15.23;9.90;;;;;;;;;;5103255;28;20119;-50
2024/01/13 05:25:31;;;;;;;15.27;10.15;;;;;;;;;;5101590;28;20016;-51
2024/01/13 05:27:57;;;;;;;14.00;10.18;;;;;;;;;;5097628;28;20026;-52
2024/01/13 05:30:26;;;;;;;20.52;10.55;;;;;;;;;;5095485;28;20023;-50
2024/01/13 05:32:52;;;;;;;11.75;9.70;;;;;;;;;;5107485;28;20032;-54
2024/01/13 05:35:19;;;;;;;16.55;10.13;;;;;;;;;;5107729;28;20086;-55
2024/01/13 05:37:46;;;;;;;13.85;10.07;;;;;;;;;;5106778;28;20024;-53
2024/01/13 05:40:12;;;;;;;20.63;9.60;;;;;;;;;;5106413;28;20024;-51
2024/01/13 05:42:39;;;;;;;17.92;9.88;;;;;;;;;;5106257;28;20089;-50
2024/01/13 05:45:07;;;;;;;12.82;8.88;;;;;;;;;;5106165;28;20022;-51
2024/01/13 05:47:34;;;;;;;12.63;9.43;;;;;;;;;;5106593;28;20112;-55
2024/01/13 05:50:01;;;;;;;12.75;9.13;;;;;;;;;;5106191;28;20334;-52
2024/01/13 05:52:27;;;;;;;13.95;9.82;;;;;;;;;;5106290;28;20333;-51
2024/01/13 05:54:54;;;;;;;16.23;9.55;;;;;;;;;;5106234;28;20083;-56
2024/01/13 05:57:21;;;;;;;13.48;9.05;;;;;;;;;;5106311;28;20024;-52
2024/01/13 05:59:47;;;;;;;10.80;9.55;;;;;;;;;;5105714;28;20232;-51
2024/01/13 06:02:14;;;;;;;14.90;9.65;;;;;;;;;;5106054;28;20024;-49
2024/01/13 06:04:41;;;;;;;14.68;10.77;;;;;;;;;;5105984;28;20376;-52
2024/01/13 06:07:07;;;;;;;14.60;10.70;;;;;;;;;;5106000;28;20032;-49
2024/01/13 06:09:34;;;;;;;15.65;10.30;;;;;;;;;;5105639;28;20069;-50
2024/01/13 06:12:00;;;;;;;11.48;9.45;;;;;;;;;;5105936;28;20052;-49
2024/01/13 06:14:27;;;;;;;12.07;9.57;;;;;;;;;;5105746;28;20020;-53
2024/01/13 06:16:54;;;;;;;13.15;10.05;;;;;;;;;;5105473;28;20032;-48
2024/01/13 06:19:20;;;;;;;11.88;9.60;;;;;;;;;;5105600;28;20024;-51
2024/01/13 06:21:47;;;;;;;11.82;9.60;;;;;;;;;;5105712;28;20022;-49
2024/01/13 06:24:13;;;;;;;11.35;8.82;;;;;;;;;;5105378;28;20016;-49
2024/01/13 06:26:40;;;;;;;11.90;9.27;;;;;;;;;;5105462;28;20024;-52
2024/01/13 06:29:08;;;;;;;12.18;9.57;;;;;;;;;;5105525;28;20016;-51
2024/01/13 06:31:34;;;;;;;12.15;9.95;;;;;;;;;;5105261;28;20050;-52
2024/01/13 06:34:01;;;;;;;13.18;10.15;;;;;;;;;;5105580;28;20020;-57
2024/01/13 06:36:27;;;;;;;10.13;8.93;;;;;;;;;;5105305;28;20047;-52
2024/01/13 06:38:54;;;;;;;13.90;9.60;;;;;;;;;;5105051;28;20015;-55
2024/01/13 06:41:21;;;;;;;14.55;9.60;;;;;;;;;;5105168;28;20023;-52
2024/01/13 06:43:48;;;;;;;13.57;10.52;;;;;;;;;;5105201;28;20016;-52
2024/01/13 06:46:14;;;;;;;13.20;9.70;;;;;;;;;;5104843;28;20016;-54
2024/01/13 06:48:42;;;;;;;11.32;9.40;;;;;;;;;;5105053;28;20016;-54
2024/01/13 06:51:09;;;;;;;12.98;9.65;;;;;;;;;;5104889;28;20035;-56
2024/01/13 06:53:35;;;;;;;11.20;9.70;;;;;;;;;;5104946;28;20028;-55
2024/01/13 06:56:03;;;;;;;11.73;9.35;;;;;;;;;;5104601;28;20036;-53
2024/01/13 06:58:29;;;;;;;11.90;9.40;;;;;;;;;;5105325;28;20032;-56
2024/01/13 07:00:56;;;;;;;10.55;9.18;;;;;;;;;;5104515;28;20039;-58
2024/01/13 07:03:22;;;;;;;11.25;10.00;;;;;;;;;;5104816;28;20106;-52
2024/01/13 07:05:49;;;;;;;13.30;9.90;;;;;;;;;;5104844;28;20230;-54
2024/01/13 07:08:15;;;;;;;11.98;9.40;;;;;;;;;;5104972;28;20028;-52
2024/01/13 07:10:42;;;;;;;13.82;9.95;;;;;;;;;;5104759;28;20067;-54
2024/01/13 07:13:09;;;;;;;10.40;9.35;;;;;;;;;;5105091;28;20064;-56
2024/01/13 07:15:35;;;;;;;10.90;9.80;;;;;;;;;;5104516;28;20075;-52
2024/01/13 07:18:02;;;;;;;11.73;9.93;;;;;;;;;;5104957;28;20032;-55
2024/01/13 07:20:28;;;;;;;11.55;10.10;;;;;;;;;;5104479;28;20027;-59
2024/01/13 07:22:55;;;;;;;13.70;10.48;;;;;;;;;;5104862;28;20300;-55
2024/01/13 07:25:22;;;;;;;11.48;10.05;;;;;;;;;;5104331;28;20026;-49
2024/01/13 07:27:48;;;;;;;11.50;10.00;;;;;;;;;;5104765;28;20350;-47
2024/01/13 07:30:15;;;;;;;11.52;9.73;;;;;;;;;;5104436;28;20027;-51
2024/01/13 07:32:42;;;;;;;11.98;9.73;;;;;;;;;;5104446;28;20027;-55
2024/01/13 07:35:09;;;;;;;11.90;10.30;;;;;;;;;;5104424;28;20079;-50
2024/01/13 07:37:36;;;;;;;12.13;10.27;;;;;;;;;;5104566;28;20035;-50
2024/01/13 07:40:03;;;;;;;12.88;10.75;;;;;;;;;;5104016;28;20069;-55
2024/01/13 07:42:29;;;;;;;15.52;10.35;;;;;;;;;;5104474;28;20082;-53
2024/01/13 07:44:56;;;;;;;12.00;10.75;;;;;;;;;;5104201;28;20016;-50
2024/01/13 07:47:22;;;;;;;14.65;10.88;;;;;;;;;;5103922;28;20349;-53
2024/01/13 07:49:49;;;;;;;16.75;10.88;;;;;;;;;;5104113;28;20028;-52
2024/01/13 07:52:16;;;;;;;14.63;10.57;;;;;;;;;;5104324;28;20300;-52
2024/01/13 07:54:42;;;;;;;13.95;10.40;;;;;;;;;;5103918;28;20099;-58
2024/01/13 07:57:09;;;;;;;14.93;10.80;;;;;;;;;;5104229;28;20089;-56
2024/01/13 07:59:36;;;;;;;12.77;10.48;;;;;;;;;;5103796;28;20097;-55
2024/01/13 08:02:02;;;;;;;13.20;11.40;;;;;;;;;;5103985;28;20035;-50
2024/01/13 08:04:29;;;;;;;12.23;10.93;;;;;;;;;;5104031;28;20016;-52
2024/01/13 08:06:55;;;;;;;12.18;10.77;;;;;;;;;;5107177;28;20024;-53
2024/01/13 08:09:22;;;;;;;15.05;11.23;;;;;;;;;;5108030;28;20020;-53
2024/01/13 08:11:49;;;;;;;12.25;10.68;;;;;;;;;;5108155;28;20058;-54
2024/01/13 08:14:16;;;;;;;12.02;10.40;;;;;;;;;;5107986;28;20020;-53
2024/01/13 08:16:43;;;;;;;13.15;11.57;;;;;;;;;;5108122;28;20112;-55
2024/01/13 08:19:10;;;;;;;15.48;11.15;;;;;;;;;;5107817;28;20023;-52
2024/01/13 08:21:37;;;;;;;12.02;10.70;;;;;;;;;;5107899;28;20069;-54
2024/01/13 08:24:04;;;;;;;12.40;11.13;;;;;;;;;;5107713;28;20058;-53
2024/01/13 08:26:31;;;;;;;12.75;10.52;;;;;;;;;;5107749;28;20084;-53
2024/01/13 08:28:57;;;;;;;13.77;10.27;;;;;;;;;;5107835;28;20027;-51
2024/01/13 08:31:24;;;;;;;14.40;10.65;;;;;;;;;;5107551;28;20023;-60
2024/01/13 08:33:50;;;;;;;11.80;10.60;;;;;;;;;;5107791;28;20042;-55
2024/01/13 08:36:17;;;;;;;12.27;10.57;;;;;;;;;;5107577;28;20016;-51
2024/01/13 08:38:44;;;;;;;12.82;10.65;;;;;;;;;;5107545;28;20118;-50
2024/01/13 08:41:14;;;;;;;13.88;10.25;;;;;;;;;;5107625;28;20091;-52
2024/01/13 08:43:43;;;;;;;13.68;10.93;;;;;;;;;;5107705;28;20020;-54
2024/01/13 08:46:13;;;;;;;11.27;10.00;;;;;;;;;;5107330;28;20008;-52
2024/01/13 08:48:40;;;;;;;13.02;10.73;;;;;;;;;;5107333;28;20031;-57
2024/01/13 08:51:08;;;;;;;15.73;11.00;;;;;;;;;;5107253;28;20056;-57
2024/01/13 08:53:34;;;;;;;15.55;11.45;;;;;;;;;;5107622;28;20028;-56
2024/01/13 08:56:02;;;;;;;14.88;10.93;;;;;;;;;;5107224;28;20355;-55
2024/01/13 08:58:29;;;;;;;16.13;10.95;;;;;;;;;;5107679;28;20024;-53
2024/01/13 09:00:56;;;;;;;18.75;11.02;;;;;;;;;;5106900;28;20347;-53
2024/01/13 09:03:25;;;;;;;14.48;11.02;;;;;;;;;;5107562;28;20093;-50
2024/01/13 09:05:52;;;;;;;16.58;11.60;;;;;;;;;;5107037;28;20027;-55
2024/01/13 09:08:18;;;;;;;12.30;11.00;;;;;;;;;;5107284;28;20078;-53
2024/01/13 09:10:45;;;;;;;13.20;10.48;;;;;;;;;;5107047;28;20020;-54
2024/01/13 09:13:12;;;;;;;13.75;10.40;;;;;;;;;;5107332;28;20031;-55
2024/01/13 09:15:38;;;;;;;13.75;10.63;;;;;;;;;;5106709;28;20208;-56
2024/01/13 09:18:06;;;;;;;20.98;10.32;;;;;;;;;;5106516;28;20024;-53
2024/01/13 09:20:33;;;;;;;15.40;11.18;;;;;;;;;;5106775;28;20262;-54
2024/01/13 09:23:00;;;;;;;15.35;9.90;;;;;;;;;;5106925;28;20035;-52
2024/01/13 09:25:26;;;;;;;13.77;10.82;;;;;;;;;;5106572;28;20023;-50
2024/01/13 09:27:53;;;;;;;12.57;10.18;;;;;;;;;;5107216;28;20027;-51
2024/01/13 09:30:21;;;;;;;11.85;10.00;;;;;;;;;;5106485;28;20079;-51
2024/01/13 09:32:48;;;;;;;12.50;10.57;;;;;;;;;;5106920;28;20050;-53
2024/01/13 09:35:15;;;;;;;15.32;11.00;;;;;;;;;;5106504;28;20365;-52
2024/01/13 09:37:43;;;;;;;12.07;9.70;;;;;;;;;;5106658;28;20078;-52
2024/01/13 09:40:10;;;;;;;12.35;10.15;;;;;;;;;;5106485;28;20027;-56
2024/01/13 09:42:51;;;;;;;12.93;9.52;;;;;;;;;;5106704;28;20020;-57
2024/01/13 09:45:20;;;;;;;10.75;9.48;;;;;;;;;;5106171;28;20024;-54
2024/01/13 09:47:46;;;;;;;12.27;10.00;;;;;;;;;;5106639;28;20024;-55
2024/01/13 09:50:13;;;;;;;12.35;10.30;;;;;;;;;;5106155;28;20016;-54
2024/01/13 09:52:40;;;;;;;14.10;9.82;;;;;;;;;;5106306;28;20027;-48
2024/01/13 09:55:09;;;;;;;16.25;10.77;;;;;;;;;;5106139;28;20083;-47
2024/01/13 09:57:36;;;;;;;11.13;9.88;;;;;;;;;;5106241;28;20032;-50
2024/01/13 10:00:04;;;;;;;12.75;9.70;;;;;;;;;;5105578;28;20104;-47
2024/01/13 10:02:30;;;;;;;11.15;10.05;;;;;;;;;;5106301;28;20087;-48
2024/01/13 10:04:57;;;;;;;16.75;10.93;;;;;;;;;;5105901;28;20079;-48
2024/01/13 10:07:24;;;;;;;22.02;10.32;;;;;;;;;;5106047;28;20024;-50
2024/01/13 10:09:50;;;;;;;19.48;10.35;;;;;;;;;;5105922;28;20133;-56
2024/01/13 10:12:17;;;;;;;20.60;10.63;;;;;;;;;;5105983;28;20087;-49
2024/01/13 10:14:43;;;;;;;16.00;10.40;;;;;;;;;;5105890;28;20024;-49
2024/01/13 10:17:10;;;;;;;17.38;10.30;;;;;;;;;;5105595;28;20039;-60
2024/01/13 10:19:41;;;;;;;12.45;10.13;;;;;;;;;;5105586;28;20082;-57
2024/01/13 10:22:08;;;;;;;15.10;10.07;;;;;;;;;;5105661;28;20031;-54
2024/01/13 10:24:35;;;;;;;15.48;9.88;;;;;;;;;;5105168;28;20012;-47
2024/01/13 10:27:03;;;;;;;12.50;9.75;;;;;;;;;;5105621;28;20126;-55
2024/01/13 10:29:30;;;;;;;14.50;10.10;;;;;;;;;;5104266;28;20019;-54
2024/01/13 10:31:57;;;;;;;12.82;9.63;;;;;;;;;;5105625;28;20032;-55
2024/01/13 10:34:23;;;;;;;10.82;9.80;;;;;;;;;;5105397;28;20041;-48
2024/01/13 10:36:50;;;;;;;10.90;9.80;;;;;;;;;;5105279;28;20055;-48
2024/01/13 10:39:18;;;;;;;12.65;10.00;;;;;;;;;;5105329;28;20016;-50
2024/01/13 10:41:49;;;;;;;14.57;9.27;;;;;;;;;;5105446;28;20047;-52
2024/01/13 10:44:17;;;;;;;15.50;9.48;;;;;;;;;;5105134;28;20251;-55
2024/01/13 10:46:47;;;;;;;15.52;9.52;;;;;;;;;;5105328;28;20028;-58
2024/01/13 10:49:14;;;;;;;19.25;10.45;;;;;;;;;;5105123;28;20024;-54
2024/01/13 10:51:43;;;;;;;20.33;9.95;;;;;;;;;;5105046;28;20365;-53
2024/01/13 10:54:10;;;;;;;73.22;12.70;;;;;;;;;;5105146;28;20051;-53
2024/01/13 10:56:38;;;;;;;23.23;9.77;;;;;;;;;;5104977;28;20255;-52
2024/01/13 10:59:05;;;;;;;18.13;9.95;;;;;;;;;;5104048;28;20046;-52
2024/01/13 11:01:33;;;;;;;20.00;9.57;;;;;;;;;;5092558;28;20032;-56
2024/01/13 11:04:00;;;;;;;30.40;10.10;;;;;;;;;;5084525;28;20066;-59
2024/01/13 11:06:28;;;;;;;29.48;10.02;;;;;;;;;;5084466;28;20030;-57
2024/01/13 11:08:54;;;;;;;26.63;10.40;;;;;;;;;;5090245;28;20012;-52
2024/01/13 11:11:24;;;;;;;18.98;10.02;;;;;;;;;;5104675;28;20023;-55
2024/01/13 11:13:53;;;;;;;20.73;9.70;;;;;;;;;;5102110;28;20077;-51
2024/01/13 11:16:21;;;;;;;22.55;10.52;;;;;;;;;;5084342;28;20111;-48
2024/01/13 11:18:57;;;;;;;27.08;9.93;;;;;;;;;;5084231;28;20217;-57
2024/01/13 11:21:32;;;;;;;39.33;10.48;;;;;;;;;;5091792;28;20047;-52
2024/01/13 11:24:01;;;;;;;33.50;12.05;;;;;;;;;;5104556;28;20181;-57
2024/01/13 11:26:37;;;;;;;29.17;10.70;;;;;;;;;;5104623;28;20012;-56
2024/01/13 11:29:15;;;;;;;44.83;11.30;;;;;;;;;;5097489;28;20024;-52
2024/01/13 11:31:43;;;;;;;29.58;11.18;;;;;;;;;;5084424;28;20032;-53
2024/01/13 11:34:11;;;;;;;24.15;10.18;;;;;;;;;;5084181;28;20027;-53
2024/01/13 11:36:42;;;;;;;30.92;10.70;;;;;;;;;;5084063;28;20094;-51
2024/01/13 11:39:09;;;;;;;26.40;10.75;;;;;;;;;;5084109;28;20024;-50
2024/01/13 11:41:40;;;;;;;26.58;10.60;;;;;;;;;;5083738;28;20301;-54
2024/01/13 11:44:07;;;;;;;23.88;10.48;;;;;;;;;;5083916;28;20312;-55
2024/01/13 11:46:38;;;;;;;29.45;10.20;;;;;;;;;;5102923;28;20020;-55
2024/01/13 11:49:07;;;;;;;18.77;10.30;;;;;;;;;;5104256;28;20020;-53
2024/01/13 11:51:52;;;;;;;17.65;9.73;;;;;;;;;;5103876;28;20023;-53
2024/01/13 11:54:19;;;;;;;30.95;10.40;;;;;;;;;;5104089;28;20284;-53
2024/01/13 11:56:45;;;;;;;21.13;10.50;;;;;;;;;;5104041;28;20083;-52
2024/01/13 11:59:12;;;;;;;28.08;10.25;;;;;;;;;;5103869;28;20032;-54
2024/01/13 12:01:41;;;;;;;31.15;10.15;;;;;;;;;;5104009;28;20050;-49
2024/01/13 12:04:08;;;;;;;22.30;10.40;;;;;;;;;;5103821;28;20243;-55
2024/01/13 12:06:35;;;;;;;22.45;9.70;;;;;;;;;;5102787;28;20293;-53
2024/01/13 12:09:02;;;;;;;32.97;10.93;;;;;;;;;;5103989;28;20043;-52
2024/01/13 12:11:29;;;;;;;28.17;10.07;;;;;;;;;;5103834;28;20042;-54
2024/01/13 12:13:56;;;;;;;29.65;10.30;;;;;;;;;;5103308;28;20335;-52
2024/01/13 12:16:22;;;;;;;39.42;11.10;;;;;;;;;;5100090;28;20256;-52
2024/01/13 12:18:49;;;;;;;45.42;11.05;;;;;;;;;;5083651;28;20024;-54
2024/01/13 12:21:16;;;;;;;38.83;11.60;;;;;;;;;;5083640;28;20020;-53
2024/01/13 12:23:42;;;;;;;30.17;11.45;;;;;;;;;;5095637;28;20055;-53
2024/01/13 12:26:09;;;;;;;28.38;10.30;;;;;;;;;;5103831;28;20012;-50
2024/01/13 12:28:36;;;;;;;24.73;10.65;;;;;;;;;;5103876;28;20020;-51
2024/01/13 12:31:03;;;;;;;22.42;9.95;;;;;;;;;;5103851;28;20035;-49
2024/01/13 12:33:29;;;;;;;22.70;9.55;;;;;;;;;;5104164;28;20027;-53
2024/01/13 12:36:00;;;;;;;24.90;10.35;;;;;;;;;;5103283;28;20016;-52
2024/01/13 12:38:30;;;;;;;23.88;9.45;;;;;;;;;;5102210;28;20051;-53
2024/01/13 12:40:59;;;;;;;19.35;9.38;;;;;;;;;;5101254;28;20083;-55
2024/01/13 12:43:28;;;;;;;22.92;9.15;;;;;;;;;;5104143;28;20052;-53
2024/01/13 12:45:56;;;;;;;18.55;9.50;;;;;;;;;;5090528;28;20067;-56
2024/01/13 12:48:22;;;;;;;13.57;9.02;;;;;;;;;;5084416;28;20057;-53
2024/01/13 12:50:49;;;;;;;18.52;9.52;;;;;;;;;;5103598;28;20024;-55
2024/01/13 12:53:16;;;;;;;21.67;9.77;;;;;;;;;;5105708;28;20077;-56
2024/01/13 12:55:42;;;;;;;19.10;9.80;;;;;;;;;;5107117;28;20024;-52
2024/01/13 12:58:10;;;;;;;19.80;9.57;;;;;;;;;;5107705;28;20023;-52
2024/01/13 13:00:36;;;;;;;23.40;9.75;;;;;;;;;;5107509;28;20052;-52
2024/01/13 13:03:03;;;;;;;19.48;9.45;;;;;;;;;;5107363;28;20031;-52
2024/01/13 13:05:30;;;;;;;17.83;9.57;;;;;;;;;;5107106;28;20046;-49
2024/01/13 13:07:57;;;;;;;12.27;8.88;;;;;;;;;;5107553;28;20043;-54
2024/01/13 13:10:24;;;;;;;16.73;8.95;;;;;;;;;;5106862;28;20020;-49
2024/01/13 13:12:50;;;;;;;20.42;8.63;;;;;;;;;;5107500;28;20024;-56
2024/01/13 13:15:17;;;;;;;15.05;8.63;;;;;;;;;;5107340;28;20028;-58
2024/01/13 13:17:43;;;;;;;16.23;9.15;;;;;;;;;;5089055;28;20028;-53
2024/01/13 13:20:11;;;;;;;16.23;8.98;;;;;;;;;;5086890;28;20220;-53
2024/01/13 13:22:37;;;;;;;15.98;7.75;;;;;;;;;;5087147;28;20044;-54
2024/01/13 13:25:08;;;;;;;17.02;8.88;;;;;;;;;;5086380;28;20024;-53
2024/01/13 13:27:34;;;;;;;13.68;8.90;;;;;;;;;;5086758;28;20066;-53
2024/01/13 13:30:01;;;;;;;15.70;8.95;;;;;;;;;;5086656;28;20316;-55
2024/01/13 13:32:28;;;;;;;20.80;8.88;;;;;;;;;;5086536;28;20035;-54
2024/01/13 13:34:54;;;;;;;13.88;8.52;;;;;;;;;;5086381;28;20032;-53
2024/01/13 13:37:21;;;;;;;21.98;9.30;;;;;;;;;;5086452;28;20029;-54
2024/01/13 13:39:48;;;;;;;13.20;8.75;;;;;;;;;;5099279;28;20150;-54
2024/01/13 13:42:15;;;;;;;13.05;8.63;;;;;;;;;;5106619;28;20200;-52
2024/01/13 13:44:42;;;;;;;15.30;8.73;;;;;;;;;;5093535;28;20024;-50
2024/01/13 13:47:08;;;;;;;13.40;8.70;;;;;;;;;;5102373;28;20030;-53
2024/01/13 13:49:35;;;;;;;17.10;7.82;;;;;;;;;;5103260;28;20024;-55
2024/01/13 13:52:02;;;;;;;13.80;8.00;;;;;;;;;;5086087;28;20074;-56
2024/01/13 13:54:29;;;;;;;12.57;7.93;;;;;;;;;;5089239;28;20020;-55
2024/01/13 13:56:58;;;;;;;11.85;8.25;;;;;;;;;;5107113;28;20031;-50
2024/01/13 13:59:24;;;;;;;12.15;7.60;;;;;;;;;;5106003;28;20103;-54
2024/01/13 14:01:51;;;;;;;13.48;8.43;;;;;;;;;;5106231;28;20211;-56
2024/01/13 14:04:18;;;;;;;15.27;8.50;;;;;;;;;;5106281;28;20045;-52
2024/01/13 14:06:44;;;;;;;16.52;8.27;;;;;;;;;;5106168;28;20024;-49
2024/01/13 14:09:11;;;;;;;15.18;8.80;;;;;;;;;;5105819;28;20027;-49
2024/01/13 14:11:37;;;;;;;12.43;8.15;;;;;;;;;;5105728;28;20027;-49
2024/01/13 14:14:04;;;;;;;12.40;8.15;;;;;;;;;;5106027;28;20077;-52
2024/01/13 14:16:31;;;;;;;10.93;8.10;;;;;;;;;;5105755;28;20073;-53
2024/01/13 14:18:58;;;;;;;15.80;8.27;;;;;;;;;;5105790;28;20023;-52
2024/01/13 14:21:24;;;;;;;11.25;7.82;;;;;;;;;;5105790;28;20019;-53